sensor_id;sensor_type;location;lat;lon;timestamp;P1;durP1;ratioP1;P2;durP2;ratioP2
16037;SDS011;8123;50.906;6.172;2023-05-31T00:01:47;16.07;;;11.20;;
16037;SDS011;8123;50.906;6.172;2023-05-31T00:04:13;15.50;;;10.77;;
16037;SDS011;8123;50.906;6.172;2023-05-31T00:06:39;22.57;;;11.07;;
16037;SDS011;8123;50.906;6.172;2023-05-31T00:09:04;21.07;;;12.40;;
16037;SDS011;8123;50.906;6.172;2023-05-31T00:11:30;17.80;;;11.30;;
16037;SDS011;8123;50.906;6.172;2023-05-31T00:13:55;20.93;;;11.33;;
16037;SDS011;8123;50.906;6.172;2023-05-31T00:16:21;18.63;;;10.83;;
16037;SDS011;8123;50.906;6.172;2023-05-31T00:18:47;20.60;;;10.90;;
16037;SDS011;8123;50.906;6.172;2023-05-31T00:21:12;17.77;;;11.30;;
16037;SDS011;8123;50.906;6.172;2023-05-31T00:23:38;19.60;;;12.27;;
16037;SDS011;8123;50.906;6.172;2023-05-31T00:26:03;21.77;;;10.93;;
16037;SDS011;8123;50.906;6.172;2023-05-31T00:28:30;21.40;;;12.27;;
16037;SDS011;8123;50.906;6.172;2023-05-31T00:30:55;20.93;;;11.00;;
16037;SDS011;8123;50.906;6.172;2023-05-31T00:33:21;18.63;;;11.70;;
16037;SDS011;8123;50.906;6.172;2023-05-31T00:35:46;15.33;;;11.57;;
16037;SDS011;8123;50.906;6.172;2023-05-31T00:38:12;37.87;;;13.13;;
16037;SDS011;8123;50.906;6.172;2023-05-31T00:40:38;32.10;;;13.10;;
16037;SDS011;8123;50.906;6.172;2023-05-31T00:43:04;26.53;;;12.83;;
16037;SDS011;8123;50.906;6.172;2023-05-31T00:45:30;17.83;;;12.10;;
16037;SDS011;8123;50.906;6.172;2023-05-31T00:47:58;17.77;;;12.13;;
16037;SDS011;8123;50.906;6.172;2023-05-31T00:50:28;22.50;;;12.57;;
16037;SDS011;8123;50.906;6.172;2023-05-31T00:52:54;20.53;;;12.60;;
16037;SDS011;8123;50.906;6.172;2023-05-31T00:55:22;25.27;;;13.50;;
16037;SDS011;8123;50.906;6.172;2023-05-31T00:57:48;27.80;;;14.00;;
16037;SDS011;8123;50.906;6.172;2023-05-31T01:00:15;20.80;;;12.60;;
16037;SDS011;8123;50.906;6.172;2023-05-31T01:02:41;22.63;;;12.70;;
16037;SDS011;8123;50.906;6.172;2023-05-31T01:05:07;16.93;;;10.80;;
16037;SDS011;8123;50.906;6.172;2023-05-31T01:07:33;21.93;;;12.83;;
16037;SDS011;8123;50.906;6.172;2023-05-31T01:10:02;21.73;;;12.53;;
16037;SDS011;8123;50.906;6.172;2023-05-31T01:16:04;19.37;;;12.17;;
16037;SDS011;8123;50.906;6.172;2023-05-31T01:18:20;22.80;;;12.37;;
16037;SDS011;8123;50.906;6.172;2023-05-31T01:21:09;31.23;;;12.80;;
16037;SDS011;8123;50.906;6.172;2023-05-31T01:28:53;22.47;;;12.03;;
16037;SDS011;8123;50.906;6.172;2023-05-31T01:31:24;19.00;;;12.50;;
16037;SDS011;8123;50.906;6.172;2023-05-31T01:33:51;22.40;;;12.70;;
16037;SDS011;8123;50.906;6.172;2023-05-31T01:36:18;24.07;;;13.63;;
16037;SDS011;8123;50.906;6.172;2023-05-31T01:38:44;30.33;;;13.30;;
16037;SDS011;8123;50.906;6.172;2023-05-31T01:41:11;18.47;;;12.53;;
16037;SDS011;8123;50.906;6.172;2023-05-31T01:43:39;19.43;;;11.80;;
16037;SDS011;8123;50.906;6.172;2023-05-31T01:46:08;25.10;;;13.53;;
16037;SDS011;8123;50.906;6.172;2023-05-31T01:48:36;23.07;;;13.57;;
16037;SDS011;8123;50.906;6.172;2023-05-31T01:51:02;26.30;;;14.27;;
16037;SDS011;8123;50.906;6.172;2023-05-31T01:53:31;21.27;;;12.83;;
16037;SDS011;8123;50.906;6.172;2023-05-31T01:55:56;23.33;;;13.20;;
16037;SDS011;8123;50.906;6.172;2023-05-31T01:58:24;29.70;;;14.23;;
16037;SDS011;8123;50.906;6.172;2023-05-31T02:00:52;27.20;;;12.97;;
16037;SDS011;8123;50.906;6.172;2023-05-31T02:03:18;27.50;;;13.87;;
16037;SDS011;8123;50.906;6.172;2023-05-31T02:05:53;21.73;;;14.10;;
16037;SDS011;8123;50.906;6.172;2023-05-31T02:08:20;27.43;;;14.00;;
16037;SDS011;8123;50.906;6.172;2023-05-31T02:10:47;23.83;;;14.30;;
16037;SDS011;8123;50.906;6.172;2023-05-31T02:13:12;25.77;;;13.87;;
16037;SDS011;8123;50.906;6.172;2023-05-31T02:15:38;30.53;;;16.40;;
16037;SDS011;8123;50.906;6.172;2023-05-31T02:18:06;28.60;;;14.00;;
16037;SDS011;8123;50.906;6.172;2023-05-31T02:20:33;23.57;;;14.17;;
16037;SDS011;8123;50.906;6.172;2023-05-31T02:22:58;25.80;;;14.10;;
16037;SDS011;8123;50.906;6.172;2023-05-31T02:25:24;29.47;;;15.23;;
16037;SDS011;8123;50.906;6.172;2023-05-31T02:27:50;34.63;;;15.27;;
16037;SDS011;8123;50.906;6.172;2023-05-31T02:30:16;27.07;;;15.53;;
16037;SDS011;8123;50.906;6.172;2023-05-31T02:32:41;33.00;;;15.00;;
16037;SDS011;8123;50.906;6.172;2023-05-31T02:35:08;32.40;;;16.23;;
16037;SDS011;8123;50.906;6.172;2023-05-31T02:37:36;30.77;;;17.33;;
16037;SDS011;8123;50.906;6.172;2023-05-31T02:40:03;25.90;;;14.50;;
16037;SDS011;8123;50.906;6.172;2023-05-31T02:42:40;25.83;;;14.37;;
16037;SDS011;8123;50.906;6.172;2023-05-31T02:45:07;30.07;;;15.07;;
16037;SDS011;8123;50.906;6.172;2023-05-31T02:47:35;31.10;;;14.70;;
16037;SDS011;8123;50.906;6.172;2023-05-31T02:50:02;29.50;;;15.07;;
16037;SDS011;8123;50.906;6.172;2023-05-31T02:52:28;34.83;;;17.07;;
16037;SDS011;8123;50.906;6.172;2023-05-31T02:54:54;32.93;;;15.23;;
16037;SDS011;8123;50.906;6.172;2023-05-31T02:57:19;31.70;;;15.20;;
16037;SDS011;8123;50.906;6.172;2023-05-31T02:59:45;28.70;;;14.80;;
16037;SDS011;8123;50.906;6.172;2023-05-31T03:02:11;29.17;;;13.93;;
16037;SDS011;8123;50.906;6.172;2023-05-31T03:04:37;25.83;;;15.33;;
16037;SDS011;8123;50.906;6.172;2023-05-31T03:07:03;29.67;;;16.10;;
16037;SDS011;8123;50.906;6.172;2023-05-31T03:09:29;27.90;;;14.30;;
16037;SDS011;8123;50.906;6.172;2023-05-31T03:11:55;29.77;;;16.73;;
16037;SDS011;8123;50.906;6.172;2023-05-31T03:14:20;29.70;;;16.60;;
16037;SDS011;8123;50.906;6.172;2023-05-31T03:16:46;30.87;;;16.70;;
16037;SDS011;8123;50.906;6.172;2023-05-31T03:19:12;31.23;;;15.63;;
16037;SDS011;8123;50.906;6.172;2023-05-31T03:21:38;35.63;;;16.07;;
16037;SDS011;8123;50.906;6.172;2023-05-31T03:24:04;34.10;;;17.70;;
16037;SDS011;8123;50.906;6.172;2023-05-31T03:26:29;31.00;;;15.67;;
16037;SDS011;8123;50.906;6.172;2023-05-31T03:28:55;37.07;;;17.07;;
16037;SDS011;8123;50.906;6.172;2023-05-31T03:31:21;30.03;;;15.00;;
16037;SDS011;8123;50.906;6.172;2023-05-31T03:33:47;29.53;;;15.50;;
16037;SDS011;8123;50.906;6.172;2023-05-31T03:36:13;31.70;;;16.93;;
16037;SDS011;8123;50.906;6.172;2023-05-31T03:38:38;29.53;;;15.73;;
16037;SDS011;8123;50.906;6.172;2023-05-31T03:41:04;33.73;;;16.67;;
16037;SDS011;8123;50.906;6.172;2023-05-31T03:43:29;33.63;;;16.37;;
16037;SDS011;8123;50.906;6.172;2023-05-31T03:45:55;30.77;;;17.27;;
16037;SDS011;8123;50.906;6.172;2023-05-31T03:48:25;27.17;;;15.80;;
16037;SDS011;8123;50.906;6.172;2023-05-31T03:50:52;37.93;;;17.57;;
16037;SDS011;8123;50.906;6.172;2023-05-31T03:53:17;37.90;;;18.00;;
16037;SDS011;8123;50.906;6.172;2023-05-31T03:55:43;34.13;;;18.77;;
16037;SDS011;8123;50.906;6.172;2023-05-31T03:58:09;43.73;;;19.80;;
16037;SDS011;8123;50.906;6.172;2023-05-31T04:00:35;34.40;;;17.23;;
16037;SDS011;8123;50.906;6.172;2023-05-31T04:03:01;33.53;;;17.50;;
16037;SDS011;8123;50.906;6.172;2023-05-31T04:05:27;37.80;;;17.47;;
16037;SDS011;8123;50.906;6.172;2023-05-31T04:07:53;29.60;;;16.30;;
16037;SDS011;8123;50.906;6.172;2023-05-31T04:10:18;33.00;;;16.37;;
16037;SDS011;8123;50.906;6.172;2023-05-31T04:12:44;36.93;;;19.70;;
16037;SDS011;8123;50.906;6.172;2023-05-31T04:15:10;32.83;;;17.57;;
16037;SDS011;8123;50.906;6.172;2023-05-31T04:17:35;34.63;;;16.70;;
16037;SDS011;8123;50.906;6.172;2023-05-31T04:20:01;37.10;;;17.47;;
16037;SDS011;8123;50.906;6.172;2023-05-31T04:22:32;27.77;;;16.00;;
16037;SDS011;8123;50.906;6.172;2023-05-31T04:24:58;32.87;;;16.67;;
16037;SDS011;8123;50.906;6.172;2023-05-31T04:27:24;37.83;;;16.80;;
16037;SDS011;8123;50.906;6.172;2023-05-31T04:29:50;30.50;;;16.40;;
16037;SDS011;8123;50.906;6.172;2023-05-31T04:32:16;34.73;;;16.23;;
16037;SDS011;8123;50.906;6.172;2023-05-31T04:34:42;31.00;;;16.00;;
16037;SDS011;8123;50.906;6.172;2023-05-31T04:37:08;29.63;;;15.20;;
16037;SDS011;8123;50.906;6.172;2023-05-31T04:39:34;33.97;;;16.77;;
16037;SDS011;8123;50.906;6.172;2023-05-31T04:41:59;25.03;;;16.00;;
16037;SDS011;8123;50.906;6.172;2023-05-31T04:44:25;26.93;;;15.90;;
16037;SDS011;8123;50.906;6.172;2023-05-31T04:46:51;29.53;;;15.97;;
16037;SDS011;8123;50.906;6.172;2023-05-31T04:49:17;27.90;;;16.50;;
16037;SDS011;8123;50.906;6.172;2023-05-31T04:51:43;24.90;;;15.33;;
16037;SDS011;8123;50.906;6.172;2023-05-31T04:54:09;32.27;;;16.00;;
16037;SDS011;8123;50.906;6.172;2023-05-31T04:56:35;25.50;;;15.63;;
16037;SDS011;8123;50.906;6.172;2023-05-31T04:59:00;34.20;;;17.27;;
16037;SDS011;8123;50.906;6.172;2023-05-31T05:01:27;28.83;;;15.97;;
16037;SDS011;8123;50.906;6.172;2023-05-31T05:03:53;39.87;;;16.57;;
16037;SDS011;8123;50.906;6.172;2023-05-31T05:06:19;23.40;;;15.07;;
16037;SDS011;8123;50.906;6.172;2023-05-31T05:08:45;31.10;;;16.70;;
16037;SDS011;8123;50.906;6.172;2023-05-31T05:11:11;28.60;;;17.30;;
16037;SDS011;8123;50.906;6.172;2023-05-31T05:13:37;27.80;;;16.70;;
16037;SDS011;8123;50.906;6.172;2023-05-31T05:16:03;31.83;;;17.50;;
16037;SDS011;8123;50.906;6.172;2023-05-31T05:18:30;33.70;;;16.90;;
16037;SDS011;8123;50.906;6.172;2023-05-31T05:20:56;29.37;;;15.70;;
16037;SDS011;8123;50.906;6.172;2023-05-31T05:23:22;33.53;;;17.90;;
16037;SDS011;8123;50.906;6.172;2023-05-31T05:25:48;29.27;;;16.00;;
16037;SDS011;8123;50.906;6.172;2023-05-31T05:28:14;31.50;;;17.97;;
16037;SDS011;8123;50.906;6.172;2023-05-31T05:30:40;30.77;;;17.33;;
16037;SDS011;8123;50.906;6.172;2023-05-31T05:33:05;31.40;;;18.23;;
16037;SDS011;8123;50.906;6.172;2023-05-31T05:35:32;31.33;;;17.90;;
16037;SDS011;8123;50.906;6.172;2023-05-31T05:37:57;35.43;;;18.43;;
16037;SDS011;8123;50.906;6.172;2023-05-31T05:40:24;32.80;;;19.83;;
16037;SDS011;8123;50.906;6.172;2023-05-31T05:42:50;34.63;;;18.00;;
16037;SDS011;8123;50.906;6.172;2023-05-31T05:45:18;36.63;;;19.73;;
16037;SDS011;8123;50.906;6.172;2023-05-31T05:47:43;31.60;;;17.90;;
16037;SDS011;8123;50.906;6.172;2023-05-31T05:50:10;29.17;;;18.23;;
16037;SDS011;8123;50.906;6.172;2023-05-31T05:52:37;36.60;;;18.77;;
16037;SDS011;8123;50.906;6.172;2023-05-31T05:55:04;31.53;;;18.63;;
16037;SDS011;8123;50.906;6.172;2023-05-31T05:57:29;35.00;;;18.37;;
16037;SDS011;8123;50.906;6.172;2023-05-31T05:59:58;34.93;;;17.23;;
16037;SDS011;8123;50.906;6.172;2023-05-31T06:02:24;28.77;;;16.00;;
16037;SDS011;8123;50.906;6.172;2023-05-31T06:04:50;32.27;;;17.60;;
16037;SDS011;8123;50.906;6.172;2023-05-31T06:07:16;35.60;;;17.33;;
16037;SDS011;8123;50.906;6.172;2023-05-31T06:09:42;26.23;;;16.63;;
16037;SDS011;8123;50.906;6.172;2023-05-31T06:12:08;36.57;;;18.00;;
16037;SDS011;8123;50.906;6.172;2023-05-31T06:14:34;33.20;;;18.50;;
16037;SDS011;8123;50.906;6.172;2023-05-31T06:17:00;31.47;;;16.67;;
16037;SDS011;8123;50.906;6.172;2023-05-31T06:19:25;26.93;;;16.37;;
16037;SDS011;8123;50.906;6.172;2023-05-31T06:21:51;29.07;;;16.43;;
16037;SDS011;8123;50.906;6.172;2023-05-31T06:24:18;30.47;;;16.83;;
16037;SDS011;8123;50.906;6.172;2023-05-31T06:26:44;29.27;;;16.87;;
16037;SDS011;8123;50.906;6.172;2023-05-31T06:29:10;22.70;;;14.90;;
16037;SDS011;8123;50.906;6.172;2023-05-31T06:31:36;28.73;;;15.63;;
16037;SDS011;8123;50.906;6.172;2023-05-31T06:34:03;26.63;;;15.20;;
16037;SDS011;8123;50.906;6.172;2023-05-31T06:36:29;25.80;;;14.63;;
16037;SDS011;8123;50.906;6.172;2023-05-31T06:38:56;35.40;;;14.97;;
16037;SDS011;8123;50.906;6.172;2023-05-31T06:41:22;32.10;;;13.70;;
16037;SDS011;8123;50.906;6.172;2023-05-31T06:43:49;24.50;;;13.03;;
16037;SDS011;8123;50.906;6.172;2023-05-31T06:46:14;23.53;;;14.17;;
16037;SDS011;8123;50.906;6.172;2023-05-31T06:48:40;30.03;;;14.60;;
16037;SDS011;8123;50.906;6.172;2023-05-31T06:51:05;24.60;;;14.70;;
16037;SDS011;8123;50.906;6.172;2023-05-31T06:53:31;38.33;;;14.00;;
16037;SDS011;8123;50.906;6.172;2023-05-31T06:55:57;30.40;;;14.20;;
16037;SDS011;8123;50.906;6.172;2023-05-31T06:58:22;27.70;;;13.77;;
16037;SDS011;8123;50.906;6.172;2023-05-31T07:00:49;27.33;;;14.87;;
16037;SDS011;8123;50.906;6.172;2023-05-31T07:03:14;24.13;;;14.80;;
16037;SDS011;8123;50.906;6.172;2023-05-31T07:05:40;31.23;;;15.60;;
16037;SDS011;8123;50.906;6.172;2023-05-31T07:08:09;26.83;;;16.00;;
16037;SDS011;8123;50.906;6.172;2023-05-31T07:10:35;24.40;;;12.07;;
16037;SDS011;8123;50.906;6.172;2023-05-31T07:13:01;28.30;;;13.53;;
16037;SDS011;8123;50.906;6.172;2023-05-31T07:15:26;27.23;;;12.57;;
16037;SDS011;8123;50.906;6.172;2023-05-31T07:17:52;27.30;;;14.30;;
16037;SDS011;8123;50.906;6.172;2023-05-31T07:20:18;25.27;;;13.47;;
16037;SDS011;8123;50.906;6.172;2023-05-31T07:22:44;23.33;;;12.53;;
16037;SDS011;8123;50.906;6.172;2023-05-31T07:25:09;25.77;;;11.10;;
16037;SDS011;8123;50.906;6.172;2023-05-31T07:27:35;25.87;;;12.60;;
16037;SDS011;8123;50.906;6.172;2023-05-31T07:30:01;27.00;;;14.07;;
16037;SDS011;8123;50.906;6.172;2023-05-31T07:32:27;22.23;;;12.07;;
16037;SDS011;8123;50.906;6.172;2023-05-31T07:34:53;18.67;;;11.57;;
16037;SDS011;8123;50.906;6.172;2023-05-31T07:37:18;28.77;;;13.20;;
16037;SDS011;8123;50.906;6.172;2023-05-31T07:39:44;36.03;;;14.20;;
16037;SDS011;8123;50.906;6.172;2023-05-31T07:42:10;27.27;;;13.03;;
16037;SDS011;8123;50.906;6.172;2023-05-31T07:44:37;39.80;;;12.37;;
16037;SDS011;8123;50.906;6.172;2023-05-31T07:47:03;24.33;;;11.67;;
16037;SDS011;8123;50.906;6.172;2023-05-31T07:49:29;29.03;;;12.87;;
16037;SDS011;8123;50.906;6.172;2023-05-31T07:51:57;34.17;;;11.90;;
16037;SDS011;8123;50.906;6.172;2023-05-31T07:54:23;18.10;;;11.13;;
16037;SDS011;8123;50.906;6.172;2023-05-31T07:56:49;20.87;;;11.30;;
16037;SDS011;8123;50.906;6.172;2023-05-31T07:59:14;30.87;;;11.23;;
16037;SDS011;8123;50.906;6.172;2023-05-31T08:01:41;21.10;;;11.60;;
16037;SDS011;8123;50.906;6.172;2023-05-31T08:04:10;21.37;;;11.30;;
16037;SDS011;8123;50.906;6.172;2023-05-31T08:06:36;24.83;;;11.00;;
16037;SDS011;8123;50.906;6.172;2023-05-31T08:09:03;21.30;;;10.50;;
16037;SDS011;8123;50.906;6.172;2023-05-31T08:11:32;14.97;;;10.30;;
16037;SDS011;8123;50.906;6.172;2023-05-31T08:14:00;22.13;;;9.57;;
16037;SDS011;8123;50.906;6.172;2023-05-31T08:16:26;20.23;;;9.57;;
16037;SDS011;8123;50.906;6.172;2023-05-31T08:18:52;19.30;;;8.97;;
16037;SDS011;8123;50.906;6.172;2023-05-31T08:21:18;25.90;;;9.10;;
16037;SDS011;8123;50.906;6.172;2023-05-31T08:23:43;23.13;;;9.37;;
16037;SDS011;8123;50.906;6.172;2023-05-31T08:26:09;14.07;;;8.30;;
16037;SDS011;8123;50.906;6.172;2023-05-31T08:28:34;17.40;;;8.63;;
16037;SDS011;8123;50.906;6.172;2023-05-31T08:31:00;17.67;;;9.00;;
16037;SDS011;8123;50.906;6.172;2023-05-31T08:33:27;29.30;;;9.33;;
16037;SDS011;8123;50.906;6.172;2023-05-31T08:35:57;24.47;;;9.30;;
16037;SDS011;8123;50.906;6.172;2023-05-31T08:38:28;22.33;;;8.40;;
16037;SDS011;8123;50.906;6.172;2023-05-31T08:40:57;25.90;;;9.70;;
16037;SDS011;8123;50.906;6.172;2023-05-31T08:43:25;16.03;;;8.80;;
16037;SDS011;8123;50.906;6.172;2023-05-31T08:45:52;17.27;;;9.13;;
16037;SDS011;8123;50.906;6.172;2023-05-31T08:51:05;15.83;;;8.77;;
16037;SDS011;8123;50.906;6.172;2023-05-31T08:53:32;17.73;;;9.13;;
16037;SDS011;8123;50.906;6.172;2023-05-31T08:56:00;21.57;;;9.57;;
16037;SDS011;8123;50.906;6.172;2023-05-31T08:58:29;27.07;;;9.37;;
16037;SDS011;8123;50.906;6.172;2023-05-31T09:00:55;27.30;;;9.10;;
16037;SDS011;8123;50.906;6.172;2023-05-31T09:03:22;19.67;;;8.90;;
16037;SDS011;8123;50.906;6.172;2023-05-31T09:05:48;22.90;;;8.00;;
16037;SDS011;8123;50.906;6.172;2023-05-31T09:08:14;19.33;;;8.47;;
16037;SDS011;8123;50.906;6.172;2023-05-31T09:10:40;19.27;;;9.43;;
16037;SDS011;8123;50.906;6.172;2023-05-31T09:13:06;19.47;;;8.63;;
16037;SDS011;8123;50.906;6.172;2023-05-31T09:15:34;15.60;;;8.73;;
16037;SDS011;8123;50.906;6.172;2023-05-31T09:20:41;17.93;;;8.33;;
16037;SDS011;8123;50.906;6.172;2023-05-31T09:23:07;23.73;;;8.63;;
16037;SDS011;8123;50.906;6.172;2023-05-31T09:25:47;21.93;;;8.97;;
16037;SDS011;8123;50.906;6.172;2023-05-31T09:28:14;23.03;;;9.07;;
16037;SDS011;8123;50.906;6.172;2023-05-31T09:30:42;19.07;;;7.73;;
16037;SDS011;8123;50.906;6.172;2023-05-31T09:33:07;16.57;;;7.80;;
16037;SDS011;8123;50.906;6.172;2023-05-31T09:35:33;14.93;;;8.67;;
16037;SDS011;8123;50.906;6.172;2023-05-31T09:38:06;17.73;;;7.30;;
16037;SDS011;8123;50.906;6.172;2023-05-31T09:40:32;14.23;;;6.30;;
16037;SDS011;8123;50.906;6.172;2023-05-31T09:42:59;13.23;;;6.37;;
16037;SDS011;8123;50.906;6.172;2023-05-31T09:45:25;15.33;;;6.60;;
16037;SDS011;8123;50.906;6.172;2023-05-31T09:47:53;17.87;;;6.37;;
16037;SDS011;8123;50.906;6.172;2023-05-31T09:50:23;12.23;;;6.90;;
16037;SDS011;8123;50.906;6.172;2023-05-31T09:52:56;13.67;;;6.33;;
16037;SDS011;8123;50.906;6.172;2023-05-31T09:55:23;10.93;;;6.00;;
16037;SDS011;8123;50.906;6.172;2023-05-31T09:57:50;12.80;;;6.40;;
16037;SDS011;8123;50.906;6.172;2023-05-31T10:00:17;14.20;;;6.80;;
16037;SDS011;8123;50.906;6.172;2023-05-31T10:02:50;22.23;;;6.80;;
16037;SDS011;8123;50.906;6.172;2023-05-31T10:05:18;17.87;;;6.57;;
16037;SDS011;8123;50.906;6.172;2023-05-31T10:07:46;9.97;;;5.53;;
16037;SDS011;8123;50.906;6.172;2023-05-31T10:10:13;12.43;;;5.20;;
16037;SDS011;8123;50.906;6.172;2023-05-31T10:12:58;10.47;;;4.80;;
16037;SDS011;8123;50.906;6.172;2023-05-31T10:15:28;9.70;;;4.97;;
16037;SDS011;8123;50.906;6.172;2023-05-31T10:18:00;12.53;;;6.00;;
16037;SDS011;8123;50.906;6.172;2023-05-31T10:20:29;10.37;;;4.47;;
16037;SDS011;8123;50.906;6.172;2023-05-31T10:23:19;11.30;;;5.37;;
16037;SDS011;8123;50.906;6.172;2023-05-31T10:28:45;8.83;;;4.30;;
16037;SDS011;8123;50.906;6.172;2023-05-31T10:31:20;12.03;;;5.00;;
16037;SDS011;8123;50.906;6.172;2023-05-31T10:33:52;10.07;;;4.37;;
16037;SDS011;8123;50.906;6.172;2023-05-31T10:36:22;14.30;;;5.50;;
16037;SDS011;8123;50.906;6.172;2023-05-31T10:39:10;5.63;;;3.77;;
16037;SDS011;8123;50.906;6.172;2023-05-31T10:41:41;10.20;;;4.10;;
16037;SDS011;8123;50.906;6.172;2023-05-31T10:44:13;7.33;;;4.87;;
16037;SDS011;8123;50.906;6.172;2023-05-31T10:46:45;10.60;;;3.60;;
16037;SDS011;8123;50.906;6.172;2023-05-31T10:49:15;11.90;;;3.90;;
16037;SDS011;8123;50.906;6.172;2023-05-31T10:51:45;7.80;;;4.07;;
16037;SDS011;8123;50.906;6.172;2023-05-31T10:54:29;8.43;;;4.47;;
16037;SDS011;8123;50.906;6.172;2023-05-31T10:56:58;4.93;;;3.87;;
16037;SDS011;8123;50.906;6.172;2023-05-31T10:59:27;12.47;;;5.53;;
16037;SDS011;8123;50.906;6.172;2023-05-31T11:01:53;16.53;;;4.60;;
16037;SDS011;8123;50.906;6.172;2023-05-31T11:04:21;9.57;;;4.53;;
16037;SDS011;8123;50.906;6.172;2023-05-31T11:06:52;12.23;;;4.90;;
16037;SDS011;8123;50.906;6.172;2023-05-31T11:09:20;8.30;;;4.27;;
16037;SDS011;8123;50.906;6.172;2023-05-31T11:11:50;14.90;;;4.77;;
16037;SDS011;8123;50.906;6.172;2023-05-31T11:19:14;18.13;;;4.90;;
16037;SDS011;8123;50.906;6.172;2023-05-31T11:27:16;8.23;;;5.00;;
16037;SDS011;8123;50.906;6.172;2023-05-31T11:29:59;11.23;;;5.60;;
16037;SDS011;8123;50.906;6.172;2023-05-31T11:35:09;7.50;;;4.33;;
16037;SDS011;8123;50.906;6.172;2023-05-31T11:37:39;14.97;;;6.33;;
16037;SDS011;8123;50.906;6.172;2023-05-31T11:42:35;12.93;;;5.57;;
16037;SDS011;8123;50.906;6.172;2023-05-31T11:45:02;11.47;;;5.70;;
16037;SDS011;8123;50.906;6.172;2023-05-31T11:47:33;12.27;;;5.63;;
16037;SDS011;8123;50.906;6.172;2023-05-31T11:50:01;12.33;;;6.30;;
16037;SDS011;8123;50.906;6.172;2023-05-31T11:52:27;12.73;;;4.70;;
16037;SDS011;8123;50.906;6.172;2023-05-31T11:54:53;8.77;;;4.30;;
16037;SDS011;8123;50.906;6.172;2023-05-31T11:57:21;8.40;;;3.90;;
16037;SDS011;8123;50.906;6.172;2023-05-31T11:59:47;14.43;;;4.80;;
16037;SDS011;8123;50.906;6.172;2023-05-31T12:02:13;12.30;;;4.93;;
16037;SDS011;8123;50.906;6.172;2023-05-31T12:04:39;17.53;;;5.30;;
16037;SDS011;8123;50.906;6.172;2023-05-31T12:07:15;15.20;;;4.83;;
16037;SDS011;8123;50.906;6.172;2023-05-31T12:09:45;11.80;;;4.67;;
16037;SDS011;8123;50.906;6.172;2023-05-31T12:12:12;6.87;;;4.20;;
16037;SDS011;8123;50.906;6.172;2023-05-31T12:14:37;7.17;;;4.00;;
16037;SDS011;8123;50.906;6.172;2023-05-31T12:17:13;10.10;;;4.27;;
16037;SDS011;8123;50.906;6.172;2023-05-31T12:19:39;11.00;;;4.07;;
16037;SDS011;8123;50.906;6.172;2023-05-31T12:22:05;8.73;;;3.90;;
16037;SDS011;8123;50.906;6.172;2023-05-31T12:24:31;8.13;;;4.50;;
16037;SDS011;8123;50.906;6.172;2023-05-31T12:26:56;16.87;;;5.47;;
16037;SDS011;8123;50.906;6.172;2023-05-31T12:29:25;9.07;;;4.83;;
16037;SDS011;8123;50.906;6.172;2023-05-31T12:32:00;9.97;;;3.93;;
16037;SDS011;8123;50.906;6.172;2023-05-31T12:34:29;18.33;;;4.90;;
16037;SDS011;8123;50.906;6.172;2023-05-31T12:36:58;14.40;;;4.67;;
16037;SDS011;8123;50.906;6.172;2023-05-31T12:39:29;20.37;;;4.63;;
16037;SDS011;8123;50.906;6.172;2023-05-31T12:41:55;17.33;;;4.87;;
16037;SDS011;8123;50.906;6.172;2023-05-31T12:44:23;13.40;;;3.40;;
16037;SDS011;8123;50.906;6.172;2023-05-31T12:46:51;25.33;;;5.13;;
16037;SDS011;8123;50.906;6.172;2023-05-31T12:49:31;189.30;;;15.70;;
16037;SDS011;8123;50.906;6.172;2023-05-31T12:51:58;13.63;;;4.60;;
16037;SDS011;8123;50.906;6.172;2023-05-31T12:54:28;7.40;;;4.73;;
16037;SDS011;8123;50.906;6.172;2023-05-31T12:56:56;11.40;;;4.67;;
16037;SDS011;8123;50.906;6.172;2023-05-31T12:59:23;8.70;;;3.57;;
16037;SDS011;8123;50.906;6.172;2023-05-31T13:01:53;15.33;;;3.93;;
16037;SDS011;8123;50.906;6.172;2023-05-31T13:04:21;7.57;;;4.47;;
16037;SDS011;8123;50.906;6.172;2023-05-31T13:06:47;8.40;;;3.97;;
16037;SDS011;8123;50.906;6.172;2023-05-31T13:09:13;11.80;;;4.40;;
16037;SDS011;8123;50.906;6.172;2023-05-31T13:11:39;8.77;;;3.77;;
16037;SDS011;8123;50.906;6.172;2023-05-31T13:14:05;21.70;;;4.03;;
16037;SDS011;8123;50.906;6.172;2023-05-31T13:16:37;15.33;;;4.00;;
16037;SDS011;8123;50.906;6.172;2023-05-31T13:19:03;15.67;;;4.87;;
16037;SDS011;8123;50.906;6.172;2023-05-31T13:21:30;17.27;;;5.17;;
16037;SDS011;8123;50.906;6.172;2023-05-31T13:24:00;12.13;;;3.97;;
16037;SDS011;8123;50.906;6.172;2023-05-31T13:26:28;10.07;;;3.87;;
16037;SDS011;8123;50.906;6.172;2023-05-31T13:28:54;16.97;;;4.07;;
16037;SDS011;8123;50.906;6.172;2023-05-31T13:31:23;11.83;;;4.07;;
16037;SDS011;8123;50.906;6.172;2023-05-31T13:33:50;9.97;;;5.10;;
16037;SDS011;8123;50.906;6.172;2023-05-31T13:36:16;12.13;;;4.57;;
16037;SDS011;8123;50.906;6.172;2023-05-31T13:38:42;12.57;;;4.00;;
16037;SDS011;8123;50.906;6.172;2023-05-31T13:41:08;9.73;;;4.20;;
16037;SDS011;8123;50.906;6.172;2023-05-31T13:43:34;15.63;;;4.87;;
16037;SDS011;8123;50.906;6.172;2023-05-31T13:46:02;9.60;;;4.70;;
16037;SDS011;8123;50.906;6.172;2023-05-31T13:48:36;11.70;;;4.60;;
16037;SDS011;8123;50.906;6.172;2023-05-31T13:51:02;11.07;;;4.27;;
16037;SDS011;8123;50.906;6.172;2023-05-31T13:53:28;11.73;;;3.60;;
16037;SDS011;8123;50.906;6.172;2023-05-31T13:55:54;9.00;;;4.10;;
16037;SDS011;8123;50.906;6.172;2023-05-31T13:58:20;11.27;;;4.70;;
16037;SDS011;8123;50.906;6.172;2023-05-31T14:00:46;13.10;;;4.40;;
16037;SDS011;8123;50.906;6.172;2023-05-31T14:03:12;9.00;;;4.67;;
16037;SDS011;8123;50.906;6.172;2023-05-31T14:05:38;11.80;;;4.10;;
16037;SDS011;8123;50.906;6.172;2023-05-31T14:08:04;16.17;;;4.00;;
16037;SDS011;8123;50.906;6.172;2023-05-31T14:10:31;9.63;;;4.20;;
16037;SDS011;8123;50.906;6.172;2023-05-31T14:12:58;13.20;;;4.53;;
16037;SDS011;8123;50.906;6.172;2023-05-31T14:15:23;8.50;;;3.70;;
16037;SDS011;8123;50.906;6.172;2023-05-31T14:17:49;10.10;;;3.97;;
16037;SDS011;8123;50.906;6.172;2023-05-31T14:20:15;8.57;;;3.63;;
16037;SDS011;8123;50.906;6.172;2023-05-31T14:22:40;11.33;;;3.90;;
16037;SDS011;8123;50.906;6.172;2023-05-31T14:25:06;7.50;;;4.50;;
16037;SDS011;8123;50.906;6.172;2023-05-31T14:27:32;8.13;;;3.70;;
16037;SDS011;8123;50.906;6.172;2023-05-31T14:29:58;6.17;;;3.50;;
16037;SDS011;8123;50.906;6.172;2023-05-31T14:32:23;7.03;;;3.87;;
16037;SDS011;8123;50.906;6.172;2023-05-31T14:34:49;6.00;;;3.90;;
16037;SDS011;8123;50.906;6.172;2023-05-31T14:37:15;8.90;;;3.83;;
16037;SDS011;8123;50.906;6.172;2023-05-31T14:39:41;10.33;;;4.20;;
16037;SDS011;8123;50.906;6.172;2023-05-31T14:42:08;11.17;;;3.93;;
16037;SDS011;8123;50.906;6.172;2023-05-31T14:44:34;10.30;;;4.23;;
16037;SDS011;8123;50.906;6.172;2023-05-31T14:47:03;6.43;;;3.80;;
16037;SDS011;8123;50.906;6.172;2023-05-31T14:49:29;14.40;;;3.97;;
16037;SDS011;8123;50.906;6.172;2023-05-31T14:51:54;20.70;;;3.93;;
16037;SDS011;8123;50.906;6.172;2023-05-31T14:54:22;10.23;;;3.97;;
16037;SDS011;8123;50.906;6.172;2023-05-31T14:56:48;5.70;;;4.07;;
16037;SDS011;8123;50.906;6.172;2023-05-31T14:59:14;10.43;;;4.20;;
16037;SDS011;8123;50.906;6.172;2023-05-31T15:01:40;7.97;;;3.70;;
16037;SDS011;8123;50.906;6.172;2023-05-31T15:04:11;6.43;;;4.10;;
16037;SDS011;8123;50.906;6.172;2023-05-31T15:06:39;14.03;;;4.20;;
16037;SDS011;8123;50.906;6.172;2023-05-31T15:09:06;16.23;;;4.13;;
16037;SDS011;8123;50.906;6.172;2023-05-31T15:11:38;9.03;;;4.27;;
16037;SDS011;8123;50.906;6.172;2023-05-31T15:14:04;13.77;;;3.63;;
16037;SDS011;8123;50.906;6.172;2023-05-31T15:16:31;11.90;;;4.23;;